Terminal Aerodrome Forecast
Issued by NWS

Home | Current Version | Previous Version | Text Only | Print | Product List | Glossary On
Versions: 1 2 3 4 5 6 7 8 9 10 11 12 13 14 15 16 17 18 19 20
000
FTUS46 KOTX 242332
TAFCOE
TAF
KCOE 242332Z 2500/2524 21011G17KT 6SM -RA BR BKN015 OVC022
     FM250300 22006G11KT P6SM VCSH BKN025 OVC040
     FM250600 22005KT P6SM SCT025 BKN060
     FM252100 23012G19KT P6SM VCSH BKN040 BKN100=

USA.gov is the U.S. government's official web portal to all federal, state and local government web resources and services.